sensor_id;sensor_type;location;lat;lon;timestamp;P1;durP1;ratioP1;P2;durP2;ratioP2
11230;SDS011;5672;51.060;3.734;2023-05-02T14:20:19;8.55;;;4.20;;
11230;SDS011;5672;51.060;3.734;2023-05-02T14:22:47;5.53;;;3.23;;
11230;SDS011;5672;51.060;3.734;2023-05-02T14:25:13;4.57;;;3.03;;
11230;SDS011;5672;51.060;3.734;2023-05-02T14:27:39;3.93;;;3.00;;
11230;SDS011;5672;51.060;3.734;2023-05-02T14:30:06;4.33;;;3.10;;
11230;SDS011;5672;51.060;3.734;2023-05-02T14:32:32;6.50;;;3.93;;
11230;SDS011;5672;51.060;3.734;2023-05-02T14:34:59;3.77;;;3.10;;
11230;SDS011;5672;51.060;3.734;2023-05-02T14:37:25;6.23;;;2.93;;
11230;SDS011;5672;51.060;3.734;2023-05-02T14:39:51;2.87;;;2.67;;
11230;SDS011;5672;51.060;3.734;2023-05-02T14:42:20;8.77;;;3.47;;
11230;SDS011;5672;51.060;3.734;2023-05-02T14:44:46;10.53;;;3.70;;
11230;SDS011;5672;51.060;3.734;2023-05-02T14:47:12;6.23;;;3.33;;
11230;SDS011;5672;51.060;3.734;2023-05-02T14:49:38;6.07;;;2.80;;
11230;SDS011;5672;51.060;3.734;2023-05-02T14:52:04;6.00;;;3.80;;
11230;SDS011;5672;51.060;3.734;2023-05-02T14:54:30;8.77;;;3.57;;
11230;SDS011;5672;51.060;3.734;2023-05-02T14:56:56;8.80;;;3.30;;
11230;SDS011;5672;51.060;3.734;2023-05-02T14:59:23;11.90;;;3.30;;
11230;SDS011;5672;51.060;3.734;2023-05-02T15:01:52;3.73;;;2.90;;
11230;SDS011;5672;51.060;3.734;2023-05-02T15:04:18;7.87;;;3.43;;
11230;SDS011;5672;51.060;3.734;2023-05-02T15:06:44;6.37;;;3.43;;
11230;SDS011;5672;51.060;3.734;2023-05-02T15:09:11;5.80;;;3.40;;
11230;SDS011;5672;51.060;3.734;2023-05-02T15:11:38;6.77;;;3.50;;
11230;SDS011;5672;51.060;3.734;2023-05-02T15:14:04;7.10;;;3.80;;
11230;SDS011;5672;51.060;3.734;2023-05-02T15:16:30;7.13;;;3.75;;
11230;SDS011;5672;51.060;3.734;2023-05-02T15:18:56;6.20;;;3.43;;
11230;SDS011;5672;51.060;3.734;2023-05-02T15:21:22;7.17;;;3.47;;
11230;SDS011;5672;51.060;3.734;2023-05-02T15:23:48;5.50;;;3.00;;
11230;SDS011;5672;51.060;3.734;2023-05-02T15:26:14;8.93;;;3.43;;
11230;SDS011;5672;51.060;3.734;2023-05-02T15:28:40;9.43;;;3.77;;
11230;SDS011;5672;51.060;3.734;2023-05-02T15:31:06;7.83;;;3.63;;
11230;SDS011;5672;51.060;3.734;2023-05-02T15:33:32;8.57;;;3.30;;
11230;SDS011;5672;51.060;3.734;2023-05-02T15:35:58;6.80;;;3.40;;
11230;SDS011;5672;51.060;3.734;2023-05-02T15:38:24;7.30;;;3.63;;
11230;SDS011;5672;51.060;3.734;2023-05-02T15:40:57;6.73;;;3.23;;
11230;SDS011;5672;51.060;3.734;2023-05-02T15:43:24;14.33;;;3.70;;
11230;SDS011;5672;51.060;3.734;2023-05-02T15:45:50;7.30;;;3.67;;
11230;SDS011;5672;51.060;3.734;2023-05-02T15:48:17;7.87;;;3.13;;
11230;SDS011;5672;51.060;3.734;2023-05-02T15:50:43;5.77;;;3.47;;
11230;SDS011;5672;51.060;3.734;2023-05-02T15:53:09;9.00;;;3.50;;
11230;SDS011;5672;51.060;3.734;2023-05-02T15:55:35;7.43;;;3.13;;
11230;SDS011;5672;51.060;3.734;2023-05-02T15:58:01;6.03;;;3.07;;
11230;SDS011;5672;51.060;3.734;2023-05-02T16:00:28;4.50;;;3.33;;
11230;SDS011;5672;51.060;3.734;2023-05-02T16:02:54;6.57;;;3.33;;
11230;SDS011;5672;51.060;3.734;2023-05-02T16:05:20;9.73;;;3.70;;
11230;SDS011;5672;51.060;3.734;2023-05-02T16:07:46;5.77;;;3.13;;
11230;SDS011;5672;51.060;3.734;2023-05-02T16:10:12;4.70;;;2.97;;
11230;SDS011;5672;51.060;3.734;2023-05-02T16:12:38;6.33;;;3.30;;
11230;SDS011;5672;51.060;3.734;2023-05-02T16:15:04;14.43;;;3.50;;
11230;SDS011;5672;51.060;3.734;2023-05-02T16:17:30;5.87;;;3.73;;
11230;SDS011;5672;51.060;3.734;2023-05-02T16:19:56;8.80;;;3.80;;
11230;SDS011;5672;51.060;3.734;2023-05-02T16:22:22;5.23;;;3.23;;
11230;SDS011;5672;51.060;3.734;2023-05-02T16:24:48;5.53;;;3.70;;
11230;SDS011;5672;51.060;3.734;2023-05-02T16:27:14;6.87;;;3.60;;
11230;SDS011;5672;51.060;3.734;2023-05-02T16:29:40;7.77;;;3.60;;
11230;SDS011;5672;51.060;3.734;2023-05-02T16:32:06;5.77;;;3.13;;
11230;SDS011;5672;51.060;3.734;2023-05-02T16:34:32;10.50;;;3.70;;
11230;SDS011;5672;51.060;3.734;2023-05-02T16:36:58;5.97;;;3.40;;
11230;SDS011;5672;51.060;3.734;2023-05-02T16:39:25;5.13;;;3.27;;
11230;SDS011;5672;51.060;3.734;2023-05-02T16:41:51;7.00;;;3.57;;
11230;SDS011;5672;51.060;3.734;2023-05-02T16:44:17;7.23;;;3.77;;
11230;SDS011;5672;51.060;3.734;2023-05-02T16:46:43;6.30;;;3.40;;
11230;SDS011;5672;51.060;3.734;2023-05-02T16:49:09;10.87;;;4.00;;
11230;SDS011;5672;51.060;3.734;2023-05-02T16:51:35;5.70;;;4.30;;
11230;SDS011;5672;51.060;3.734;2023-05-02T16:54:01;9.50;;;3.70;;
11230;SDS011;5672;51.060;3.734;2023-05-02T16:56:27;6.20;;;4.37;;
11230;SDS011;5672;51.060;3.734;2023-05-02T16:58:53;9.03;;;4.30;;
11230;SDS011;5672;51.060;3.734;2023-05-02T17:01:20;5.57;;;4.13;;
11230;SDS011;5672;51.060;3.734;2023-05-02T17:03:47;6.73;;;4.00;;
11230;SDS011;5672;51.060;3.734;2023-05-02T17:06:13;9.40;;;3.83;;
11230;SDS011;5672;51.060;3.734;2023-05-02T17:08:39;11.27;;;4.37;;
11230;SDS011;5672;51.060;3.734;2023-05-02T17:11:05;9.43;;;4.67;;
11230;SDS011;5672;51.060;3.734;2023-05-02T17:13:32;9.73;;;4.83;;
11230;SDS011;5672;51.060;3.734;2023-05-02T17:15:58;9.20;;;5.33;;
11230;SDS011;5672;51.060;3.734;2023-05-02T17:18:25;9.53;;;5.00;;
11230;SDS011;5672;51.060;3.734;2023-05-02T17:20:52;14.30;;;5.40;;
11230;SDS011;5672;51.060;3.734;2023-05-02T17:23:18;7.30;;;4.50;;
11230;SDS011;5672;51.060;3.734;2023-05-02T17:25:45;9.53;;;5.23;;
11230;SDS011;5672;51.060;3.734;2023-05-02T17:28:11;9.53;;;4.97;;
11230;SDS011;5672;51.060;3.734;2023-05-02T17:30:37;10.23;;;4.70;;
11230;SDS011;5672;51.060;3.734;2023-05-02T17:33:03;6.80;;;5.33;;
11230;SDS011;5672;51.060;3.734;2023-05-02T17:35:29;7.63;;;4.90;;
11230;SDS011;5672;51.060;3.734;2023-05-02T17:37:56;12.37;;;5.03;;
11230;SDS011;5672;51.060;3.734;2023-05-02T17:40:22;14.37;;;5.70;;
11230;SDS011;5672;51.060;3.734;2023-05-02T17:42:48;49.87;;;14.73;;
11230;SDS011;5672;51.060;3.734;2023-05-02T17:45:14;43.90;;;13.10;;
11230;SDS011;5672;51.060;3.734;2023-05-02T17:47:40;51.90;;;19.30;;
11230;SDS011;5672;51.060;3.734;2023-05-02T17:50:06;20.47;;;7.57;;
11230;SDS011;5672;51.060;3.734;2023-05-02T17:52:33;14.40;;;5.40;;
11230;SDS011;5672;51.060;3.734;2023-05-02T17:54:59;12.67;;;5.30;;
11230;SDS011;5672;51.060;3.734;2023-05-02T17:57:26;15.90;;;5.77;;
11230;SDS011;5672;51.060;3.734;2023-05-02T17:59:52;12.63;;;4.70;;
11230;SDS011;5672;51.060;3.734;2023-05-02T18:02:22;11.87;;;4.40;;
11230;SDS011;5672;51.060;3.734;2023-05-02T18:04:48;10.50;;;5.17;;
11230;SDS011;5672;51.060;3.734;2023-05-02T18:07:14;9.27;;;4.10;;
11230;SDS011;5672;51.060;3.734;2023-05-02T18:09:47;11.57;;;4.17;;
11230;SDS011;5672;51.060;3.734;2023-05-02T18:12:13;12.37;;;4.47;;
11230;SDS011;5672;51.060;3.734;2023-05-02T18:14:39;11.43;;;4.60;;
